Data for 06/29/2014

Time Sea-Level Adjusted Pressure Absolute Pressure Temperature Relative Humidity Dew Point   
(mb) (inHg) (mb) (inHg) (C) (F) (%) (C) (F)
00:05 1018 30.06 847 25.01 9.4 49 65 3.2 37.8
00:10 1018 30.06 847 25.01 9.3 48.8 63 2.7 36.8
00:15 1018 30.06 847 25.01 9.6 49.3 63 2.9 37.1
00:20 1018 30.06 847 25.01 9.4 48.9 64 3 37.3
00:25 1018 30.06 847 25.01 9.1 48.3 66 3.2 37.7
00:30 1018 30.06 847 25.01 8.8 47.8 68 3.2 37.8
00:35 1018 30.06 847 25.01 8.6 47.5 69 3.2 37.8
00:40 1018 30.06 847 25.01 8.6 47.4 69 3.2 37.7
00:45 1018 30.06 847 25.01 8.6 47.4 68 3 37.5
00:50 1018 30.06 847 25.01 8.6 47.4 69 3.2 37.8
00:55 1018 30.06 847 25.01 8.4 47 70 3.2 37.8
01:00 1018 30.06 847 25.01 8.3 46.9 69 3 37.3
01:05 1018 30.06 847 25.01 8.4 47 71 3.4 38.1
01:10 1018 30.06 847 25.01 8.1 46.5 72 3.3 38
01:15 1018 30.06 847 25.01 8.1 46.6 70 3.1 37.5
01:20 1018 30.06 847 25.01 8.2 46.8 71 3.2 37.8
01:25 1018 30.06 847 25.01 8.2 46.7 70 3.1 37.6
01:30 1018 30.06 847 25.01 8.1 46.6 71 3.1 37.5
01:35 1018 30.06 847 25.01 8 46.4 71 3 37.5
01:40 1018 30.06 847 25.01 7.9 46.3 71 3 37.4
01:45 1018 30.06 847 25.01 7.9 46.1 71 3 37.4
01:50 1018 30.06 847 25.01 7.9 46.1 71 2.9 37.3
01:55 1018 30.06 847 25.01 7.8 46.1 71 2.9 37.3
02:00 1018 30.06 847 25.01 7.8 46 71 2.9 37.2
02:05 1018 30.06 847 25.01 7.8 46 71 2.9 37.2
02:10 1018 30.06 847 25.01 7.7 45.9 71 2.8 37.1
02:15 1018 30.06 847 25.01 7.8 46.1 71 2.9 37.2
02:20 1018 30.06 847 25.01 7.9 46.2 70 2.7 36.8
02:25 1018 30.06 847 25.01 8 46.5 69 2.7 36.9
02:30 1018 30.06 847 25.01 8.2 46.7 68 2.7 36.9
02:35 1018 30.06 847 25.01 8.3 47 68 2.8 37
02:40 1018 30.06 847 25.01 8.4 47 68 2.8 37.1
02:45 1018 30.06 847 25.01 8.4 47 68 2.9 37.2
02:50 1018 30.06 847 25.01 8.3 47 68 2.8 37.1
02:55 1018 30.06 847 25.01 8.3 46.9 68 2.9 37.2
03:00 1018 30.06 847 25.01 8.2 46.8 69 2.9 37.3
03:05 1018 30.06 847 25.01 8.1 46.6 70 2.9 37.2
03:10 1018 30.06 847 25.01 8.2 46.7 69 2.8 37.1
03:15 1018 30.06 847 25.01 8.1 46.6 70 2.9 37.2
03:20 1018 30.06 847 25.01 8.1 46.6 70 2.9 37.2
03:25 1018 30.06 847 25.01 8.1 46.6 70 2.9 37.3
03:30 1018 30.06 847 25.01 8.1 46.6 70 3 37.3
03:35 1018 30.06 847 25.01 8.1 46.5 70 3 37.4
03:40 1018 30.06 847 25.01 8.1 46.5 70 3 37.4
03:45 1018 30.06 847 25.01 8 46.5 70 3 37.3
03:50 1018 30.06 847 25.01 8 46.3 71 3 37.4
03:55 1018 30.06 847 25.01 7.9 46.1 71 3 37.4
04:00 1018 30.06 847 25.01 7.9 46.2 71 2.9 37.2
04:05 1018 30.06 847 25.01 7.9 46.2 71 3 37.4
04:10 1018 30.06 847 25.01 7.9 46.2 71 2.9 37.2
04:15 1018 30.06 847 25.01 7.9 46.3 71 2.9 37.3
04:20 1018 30.06 847 25.01 7.9 46.2 70 2.8 37
04:25 1018 30.06 847 25.01 7.9 46.2 70 2.8 37
04:30 1018 30.06 847 25.01 7.7 45.9 70 2.6 36.7
04:35 1018 30.06 847 25.01 7.6 45.7 70 2.5 36.5
04:40 1018 30.06 847 25.01 7.6 45.6 71 2.6 36.7
04:45 1018 30.06 847 25.01 7.4 45.4 73 2.9 37.2
04:50 1018 30.06 847 25.01 7.2 45 73 2.8 37
04:55 1018 30.06 847 25.01 7.1 44.7 76 3.1 37.6
05:00 1018 30.06 847 25.01 7.1 44.8 74 2.7 36.9
05:05 1018 30.06 847 25.01 7.3 45.1 73 2.9 37.2
05:10 1018 30.06 847 25.01 7 44.6 75 2.9 37.2
05:15 1018 30.06 847 25.01 6.8 44.3 75 2.6 36.7
05:20 1018 30.06 847 25.01 6.8 44.3 75 2.7 36.9
05:25 1018 30.06 847 25.01 6.8 44.2 75 2.7 36.9
05:30 1018 30.06 847 25.01 6.8 44.3 75 2.6 36.8
05:35 1018 30.06 847 25.01 7.1 44.8 73 2.7 36.8
05:40 1018 30.06 847 25.01 7.3 45.1 73 2.9 37.2
05:45 1018 30.06 847 25.01 7.5 45.5 72 2.8 37.1
05:50 1018 30.06 847 25.01 7.8 46 72 3 37.3
05:55 1018 30.06 847 25.01 8 46.5 71 3.1 37.5
06:00 1018 30.06 847 25.01 8.5 47.3 69 3.1 37.6
06:05 1018 30.06 848 25.04 8.9 48.1 68 3.4 38.2
06:10 1018 30.06 848 25.04 9 48.2 68 3.4 38.1
06:15 1018 30.06 848 25.04 9 48.3 70 3.9 38.9
06:20 1018 30.06 848 25.04 9.3 48.7 70 4.1 39.3
06:25 1018 30.06 848 25.04 9.4 48.8 66 3.3 37.9
06:30 1018 30.06 848 25.04 9.6 49.3 66 3.5 38.3
06:35 1018 30.06 848 25.04 9.8 49.7 65 3.7 38.7
06:40 1018 30.06 848 25.04 10 50 65 3.7 38.7
06:45 1018 30.06 848 25.04 10.3 50.5 64 3.7 38.6
06:50 1019 30.09 848 25.04 10.8 51.5 63 4.1 39.3
06:55 1019 30.09 848 25.04 11.3 52.3 61 4 39.2
07:00 1019 30.09 848 25.04 12.2 53.9 58 4.3 39.7
07:05 1019 30.09 848 25.04 13 55.3 54 3.9 39
07:10 1019 30.09 848 25.04 13.4 56.1 52 3.8 38.8
07:15 1019 30.09 848 25.04 13.6 56.6 51 3.7 38.6
07:20 1019 30.09 848 25.04 13.9 57 50 3.8 38.8
07:25 1019 30.09 848 25.04 13.7 56.6 51 3.9 39
07:30 1019 30.09 848 25.04 13.8 56.9 50 3.7 38.7
07:35 1019 30.09 848 25.04 14.4 57.9 49 3.8 38.9
07:40 1019 30.09 848 25.04 14.5 58.1 50 4.2 39.6
07:45 1019 30.09 848 25.04 14.7 58.4 48 3.9 39
07:50 1019 30.09 848 25.04 14.9 58.8 49 4.2 39.6
07:55 1019 30.09 848 25.04 14.9 58.9 47 3.9 39.1
08:00 1019 30.09 848 25.04 15 59 48 4.2 39.5
08:05 1019 30.09 848 25.04 14.8 58.6 48 3.8 38.9
08:10 1019 30.09 848 25.04 15 59 47 3.9 38.9
08:15 1019 30.09 848 25.04 15.3 59.5 46 3.6 38.6
08:20 1019 30.09 848 25.04 15.1 59.1 47 3.9 39
08:25 1019 30.09 848 25.04 15.2 59.3 47 4 39.2
08:30 1019 30.09 848 25.04 15 59.1 45 3.3 37.9
08:35 1019 30.09 848 25.04 14.9 58.8 46 3.3 38
08:40 1019 30.09 848 25.04 15.2 59.3 46 3.7 38.7
08:45 1019 30.09 848 25.04 15.4 59.6 46 3.9 39
08:50 1019 30.09 848 25.04 15.8 60.5 45 4 39.2
08:55 1019 30.09 848 25.04 16 60.8 46 4.3 39.8
09:00 1019 30.09 848 25.04 15.5 60 48 4.6 40.4
09:05 1018 30.06 848 25.04 15.6 60 45 3.9 39
09:10 1018 30.06 848 25.04 16 60.7 41 2.8 37.1
09:15 1018 30.06 848 25.04 16 60.8 41 3 37.4
09:20 1018 30.06 848 25.04 16.5 61.6 41 3.1 37.6
09:25 1018 30.06 848 25.04 16.3 61.4 43 3.8 38.9
09:30 1018 30.06 847 25.01 16 60.8 39 2.1 35.8
09:35 1018 30.06 847 25.01 16.4 61.5 34 0.4 32.7
09:40 1018 30.06 847 25.01 16.5 61.7 34 0.9 33.6
09:45 1018 30.06 847 25.01 17.1 62.7 34 1.1 34.1
09:50 1018 30.06 847 25.01 17.1 62.7 33 0.9 33.6
09:55 1018 30.06 847 25.01 17.1 62.7 33 0.7 33.3
10:00 1018 30.06 847 25.01 17.3 63.2 32 0.7 33.2
10:05 1018 30.06 847 25.01 17.3 63.1 32 0.4 32.6
10:10 1018 30.06 847 25.01 17.5 63.4 33 1 33.7
10:15 1018 30.06 847 25.01 18 64.3 31 0.9 33.5
10:20 1018 30.06 847 25.01 18.2 64.8 31 1 33.8
10:25 1018 30.06 847 25.01 18 64.3 32 1.4 34.5
10:30 1018 30.06 847 25.01 18.2 64.8 30 0.7 33.3
10:35 1018 30.06 847 25.01 18.5 65.3 31 1 33.8
10:40 1018 30.06 847 25.01 18.1 64.5 32 1.3 34.4
10:45 1018 30.06 847 25.01 18 64.3 33 1.4 34.5
10:50 1018 30.06 847 25.01 18 64.4 31 0.7 33.3
10:55 1018 30.06 847 25.01 17.3 63.2 31 0.4 32.7
11:00 1018 30.06 847 25.01 17.4 63.3 32 0.5 32.9
11:05 1018 30.06 847 25.01 17.6 63.7 32 0.7 33.3
11:10 1018 30.06 847 25.01 18.2 64.7 31 1.1 33.9
11:15 1018 30.06 847 25.01 18.3 65 31 1.2 34.1
11:20 1018 30.06 847 25.01 18.2 64.8 32 1.2 34.2
11:25 1018 30.06 847 25.01 18 64.4 32 1.3 34.4
11:30 1018 30.06 847 25.01 18.3 65 33 1.9 35.4
11:35 1018 30.06 847 25.01 18.4 65.1 31 1.1 34
11:40 1018 30.06 847 25.01 18.5 65.2 30 0.6 33.1
11:45 1018 30.06 847 25.01 18.9 66 30 1 33.9
11:50 1018 30.06 847 25.01 18.7 65.7 27 -0.3 31.5
11:55 1018 30.06 847 25.01 18.6 65.6 30 1 33.8
12:00 1018 30.06 847 25.01 18.7 65.7 30 0.9 33.6
12:05 1018 30.06 847 25.01 19.3 66.7 28 0.5 32.9
12:10 1018 30.06 847 25.01 19 66.2 29 0.8 33.5
12:15 1018 30.06 847 25.01 18.7 65.7 27 -0.6 30.9
12:20 1018 30.06 847 25.01 18.2 64.8 29 -0.1 31.8
12:25 1018 30.06 847 25.01 18.7 65.7 28 0 32.1
12:30 1018 30.06 847 25.01 19.6 67.3 25 -0.7 30.8
12:35 1018 30.06 847 25.01 19.9 67.8 26 -0.1 31.8
12:40 1018 30.06 847 25.01 19.4 67 27 0.2 32.3
12:45 1018 30.06 847 25.01 19.8 67.6 26 -0.2 31.7
12:50 1017 30.03 847 25.01 19.8 67.7 27 0.5 33
12:55 1017 30.03 847 25.01 20.6 69 25 0.1 32.1
13:00 1017 30.03 847 25.01 20.5 69 24 -0.4 31.3
13:05 1017 30.03 846 24.98 20.6 69.1 24 -0.2 31.6
13:10 1017 30.03 846 24.98 20.8 69.4 23 -0.7 30.8
13:15 1017 30.03 846 24.98 20.7 69.2 23 -0.7 30.7
13:20 1017 30.03 846 24.98 21 69.8 22 -1.5 29.4
13:25 1017 30.03 846 24.98 21.1 70 23 -0.4 31.2
13:30 1017 30.03 846 24.98 20.9 69.5 25 0.1 32.2
13:35 1017 30.03 846 24.98 21.1 69.9 25 0.2 32.3
13:40 1017 30.03 846 24.98 21.4 70.6 23 -0.6 31
13:45 1017 30.03 846 24.98 21.4 70.4 23 -0.7 30.8
13:50 1017 30.03 846 24.98 21.7 71.1 24 0.5 33
13:55 1017 30.03 846 24.98 21.4 70.6 24 0.3 32.6
14:00 1017 30.03 846 24.98 21.1 70 23 -0.6 31
14:05 1017 30.03 846 24.98 21.4 70.5 22 -0.8 30.6
14:10 1017 30.03 846 24.98 21.7 71 22 -0.5 31.2
14:15 1017 30.03 846 24.98 21.9 71.5 24 0.7 33.2
14:20 1017 30.03 846 24.98 21.5 70.7 23 -0.5 31.1
14:25 1016 30 846 24.98 21.6 70.8 22 -1 30.2
14:30 1016 30 846 24.98 21.6 71 23 -0.5 31.1
14:35 1016 30 846 24.98 21.7 71 23 -0.4 31.3
14:40 1016 30 846 24.98 21.8 71.2 22 -0.7 30.7
14:45 1016 30 846 24.98 21.9 71.3 22 -0.8 30.5
14:50 1016 30 846 24.98 21.9 71.3 22 -0.5 31.1
14:55 1016 30 846 24.98 21.4 70.5 21 -1.4 29.5
15:00 1016 30 845 24.95 21.5 70.6 22 -0.7 30.7
15:05 1016 30 845 24.95 21.7 71 21 -1.1 30
15:10 1016 30 845 24.95 22.1 71.8 21 -0.7 30.7
15:15 1016 30 845 24.95 21.6 70.8 22 -1 30.2
15:20 1016 30 845 24.95 21.3 70.3 23 -0.3 31.5
15:25 1016 30 845 24.95 21.4 70.6 23 -0.6 30.9
15:30 1016 30 845 24.95 21.5 70.7 23 -0.1 31.9
15:35 1016 30 845 24.95 21.3 70.3 23 -0.3 31.4
15:40 1016 30 845 24.95 21.4 70.6 23 -0.2 31.6
15:45 1016 30 845 24.95 21.3 70.4 23 -0.4 31.2
15:50 1016 30 845 24.95 21.6 71 23 -0.5 31.1
15:55 1016 30 845 24.95 21.7 71.1 23 -0.2 31.6
16:00 1016 30 845 24.95 21.9 71.4 22 -0.5 31.1
16:05 1016 30 845 24.95 22 71.5 23 -0.1 31.8
16:10 1016 30 845 24.95 22 71.7 23 -0.1 31.8
16:15 1016 30 845 24.95 22.1 71.9 22 -0.2 31.7
16:20 1016 30 845 24.95 22 71.5 22 -0.7 30.7
16:25 1016 30 845 24.95 21.9 71.4 21 -0.9 30.3
16:30 1016 30 845 24.95 21.9 71.4 21 -1.4 29.5
16:35 1016 30 845 24.95 21.6 70.9 22 -0.7 30.7
16:40 1016 30 845 24.95 21.4 70.4 24 0.1 32.2
16:45 1016 30 845 24.95 21.4 70.6 24 0.1 32.3
16:50 1016 30 845 24.95 21.4 70.6 23 -0.3 31.4
16:55 1016 30 845 24.95 21.8 71.2 24 0.5 32.9
17:00 1015 29.97 845 24.95 21.7 71.1 23 0.1 32.1
17:05 1016 30 845 24.95 21.4 70.4 24 0.1 32.2
17:10 1016 30 845 24.95 21.2 70.2 25 0.4 32.7
17:15 1016 30 845 24.95 21.2 70.2 26 1.1 34
17:20 1016 30 845 24.95 21.2 70.1 25 0.7 33.3
17:25 1016 30 845 24.95 20.9 69.5 26 0.8 33.4
17:30 1016 30 845 24.95 20.4 68.8 26 0.6 33
17:35 1016 30 845 24.95 20.6 69 27 1 33.8
17:40 1016 30 845 24.95 20.2 68.4 26 0.1 32.3
17:45 1016 30 845 24.95 20.4 68.8 26 0.3 32.5
17:50 1016 30 845 24.95 20.9 69.6 25 0.5 32.9
17:55 1016 30 845 24.95 20.9 69.5 25 0.4 32.6
18:00 1016 30 845 24.95 20.7 69.3 25 0.1 32.2
18:05 1016 30 845 24.95 20.6 69 26 0.6 33.1
18:10 1016 30 845 24.95 20.7 69.2 27 1.2 34.2
18:15 1016 30 845 24.95 20.3 68.6 27 1.1 34.1
18:20 1016 30 845 24.95 20 67.9 30 1.9 35.5
18:25 1016 30 845 24.95 19.7 67.4 29 1.5 34.8
18:30 1016 30 845 24.95 19.7 67.5 30 1.9 35.3
18:35 1016 30 846 24.98 19.5 67.2 31 2.3 36.1
18:40 1016 30 846 24.98 18.9 66 32 2.1 35.7
18:45 1016 30 846 24.98 18.7 65.6 32 2 35.5
18:50 1016 30 846 24.98 18.5 65.4 32 1.8 35.2
18:55 1016 30 846 24.98 18.6 65.5 32 1.9 35.4
19:00 1017 30.03 846 24.98 18.4 65.2 33 2 35.6
19:05 1017 30.03 846 24.98 18.3 65 33 2 35.5
19:10 1017 30.03 846 24.98 18.2 64.7 34 2 35.6
19:15 1017 30.03 846 24.98 18 64.4 33 1.5 34.7
19:20 1017 30.03 846 24.98 18 64.4 33 1.6 34.8
19:25 1017 30.03 846 24.98 18.1 64.5 33 1.7 35
19:30 1017 30.03 846 24.98 18 64.4 32 1.2 34.2
19:35 1017 30.03 846 24.98 17.9 64.2 32 1.3 34.3
19:40 1017 30.03 846 24.98 17.8 64 32 1.1 34
19:45 1017 30.03 846 24.98 17.8 64 32 1 33.9
19:50 1017 30.03 846 24.98 17.7 63.9 33 1.3 34.3
19:55 1017 30.03 846 24.98 17.6 63.6 32 1 33.8
20:00 1017 30.03 847 25.01 17.3 63.2 32 0.7 33.2
20:05 1017 30.03 847 25.01 17.2 63 31 -0.1 31.8
20:10 1018 30.06 847 25.01 17.1 62.8 31 -0.1 31.9
20:15 1018 30.06 847 25.01 17 62.5 32 0.1 32.1
20:20 1018 30.06 847 25.01 16.9 62.4 32 0.1 32.2
20:25 1018 30.06 847 25.01 16.7 62.1 32 0 32
20:30 1018 30.06 847 25.01 16.5 61.7 32 -0.2 31.6
20:35 1018 30.06 847 25.01 16.4 61.6 32 -0.3 31.4
20:40 1018 30.06 848 25.04 16.2 61.2 33 -0.1 31.8
20:45 1019 30.09 848 25.04 16.1 60.9 34 0.2 32.4
20:50 1019 30.09 848 25.04 15.7 60.2 36 0.7 33.3
20:55 1019 30.09 848 25.04 15.5 59.9 36 0.6 33.2
21:00 1019 30.09 848 25.04 15.4 59.7 37 0.8 33.5
21:05 1019 30.09 848 25.04 15.3 59.5 37 0.9 33.6
21:10 1019 30.09 848 25.04 15.2 59.3 38 1.1 33.9
21:15 1019 30.09 848 25.04 15.1 59.1 39 1.2 34.1
21:20 1019 30.09 849 25.07 15 59.1 38 0.8 33.4
21:25 1019 30.09 849 25.07 15.1 59.1 38 1.1 33.9
21:30 1020 30.12 849 25.07 14.9 58.7 38 0.9 33.7
21:35 1020 30.12 849 25.07 14.6 58.3 39 0.9 33.6
21:40 1020 30.12 849 25.07 14.2 57.6 39 0.6 33.1
21:45 1020 30.12 849 25.07 14.2 57.6 40 1 33.8
21:50 1020 30.12 849 25.07 14.2 57.6 41 1.1 34
21:55 1020 30.12 849 25.07 14.1 57.4 41 1.1 33.9
22:00 1020 30.12 849 25.07 14.1 57.4 40 0.8 33.4
22:05 1020 30.12 849 25.07 14.1 57.3 40 0.8 33.4
22:10 1020 30.12 850 25.1 14 57.1 40 0.7 33.3
22:15 1020 30.12 850 25.1 13.9 57.1 43 1.6 34.9
22:20 1020 30.12 850 25.1 13.7 56.7 43 1.6 34.8
22:25 1020 30.12 850 25.1 13.6 56.6 43 1.3 34.3
22:30 1020 30.12 850 25.1 13.5 56.4 41 0.7 33.3
22:35 1020 30.12 850 25.1 13.5 56.2 42 0.9 33.6
22:40 1021 30.15 850 25.1 13.4 56.1 42 0.8 33.4
22:45 1021 30.15 850 25.1 13.3 55.9 43 0.9 33.6
22:50 1021 30.15 850 25.1 13.2 55.8 43 1 33.8
22:55 1021 30.15 850 25.1 13.1 55.6 43 1 33.8
23:00 1021 30.15 850 25.1 13 55.3 44 1 33.9
23:05 1021 30.15 850 25.1 12.9 55.2 44 1.1 34
23:10 1021 30.15 850 25.1 12.8 55.1 45 1.2 34.1
23:15 1021 30.15 850 25.1 12.8 55.1 45 1.2 34.2
23:20 1021 30.15 850 25.1 12.8 55 45 1.2 34.1
23:25 1021 30.15 850 25.1 12.7 54.9 46 1.6 34.8
23:30 1021 30.15 850 25.1 12.4 54.3 49 1.9 35.5
23:35 1021 30.15 850 25.1 12.1 53.7 50 2.1 35.7
23:40 1021 30.15 850 25.1 11.9 53.5 51 2.2 35.9
23:45 1021 30.15 850 25.1 12 53.6 51 2.3 36.1
23:50 1021 30.15 850 25.1 12 53.6 51 2.3 36.2
23:55 1021 30.15 850 25.1 11.9 53.5 50 1.9 35.5
24:00 1021 30.15 850 25.1 11.9 53.5 51 2.2 36